Time;durP1;ratioP1;P1;durP2;ratioP2;P2;SDS_P1;SDS_P2;PMS_P1;PMS_P2;Temp;Humidity;BMP_temperature;BMP_pressure;BME280_temperature;BME280_humidity;BME280_pressure;Samples;Min_cycle;Max_cycle;Signal;HPM_P1;HPM_P2
2022/07/15 00:01:16;;;;;;;4.82;2.92;;;10.20;99.90;;;;;;6278414;22;20011;-85
2022/07/15 00:03:42;;;;;;;5.00;3.00;;;10.20;99.90;;;;;;6252883;22;20010;-86
2022/07/15 00:06:07;;;;;;;5.10;3.90;;;10.20;99.90;;;;;;6252734;22;20015;-85
2022/07/15 00:08:33;;;;;;;6.32;4.18;;;10.10;99.90;;;;;;6252036;22;20026;-84
2022/07/15 00:10:59;;;;;;;6.07;3.33;;;10.10;99.90;;;;;;6252441;22;20012;-86
2022/07/15 00:13:25;;;;;;;4.70;3.63;;;10.10;99.90;;;;;;6278274;22;20148;-84
2022/07/15 00:15:51;;;;;;;9.10;4.15;;;10.10;99.90;;;;;;6252359;22;20010;-85
2022/07/15 00:18:16;;;;;;;6.72;3.88;;;10.10;99.90;;;;;;6252109;22;20011;-85
2022/07/15 00:20:42;;;;;;;7.75;4.13;;;10.10;99.90;;;;;;6251898;22;20056;-85
2022/07/15 00:23:08;;;;;;;7.25;4.25;;;10.10;99.90;;;;;;6252762;22;20007;-85
2022/07/15 00:25:34;;;;;;;6.65;3.53;;;10.00;99.90;;;;;;6253043;22;20096;-85
2022/07/15 00:28:05;;;;;;;5.40;3.70;;;10.10;99.90;;;;;;6253042;22;20015;-86
2022/07/15 00:30:37;;;;;;;5.65;3.50;;;10.10;99.90;;;;;;6251589;22;20015;-85
2022/07/15 00:33:03;;;;;;;4.82;3.10;;;10.20;99.90;;;;;;6251454;22;20007;-86
2022/07/15 00:35:30;;;;;;;6.45;3.53;;;10.20;99.90;;;;;;6252581;22;20011;-85
2022/07/15 00:37:56;;;;;;;6.68;3.50;;;10.20;99.90;;;;;;6278716;22;20386;-86
2022/07/15 00:40:23;;;;;;;7.65;3.80;;;10.20;99.90;;;;;;6278086;22;20038;-84
2022/07/15 00:42:49;;;;;;;7.13;4.53;;;10.30;99.90;;;;;;6251849;22;20011;-85
2022/07/15 00:45:17;;;;;;;6.60;4.03;;;10.40;99.90;;;;;;6254337;22;20019;-85
2022/07/15 00:47:54;;;;;;;7.53;3.83;;;10.40;99.90;;;;;;6254433;22;20015;-85
2022/07/15 00:50:22;;;;;;;7.28;3.92;;;10.50;99.90;;;;;;6254714;22;20098;-85
2022/07/15 00:53:18;;;;;;;7.30;4.18;;;10.50;99.90;;;;;;6253862;22;20346;-83
2022/07/15 00:55:45;;;;;;;6.00;4.07;;;10.60;99.90;;;;;;6251097;22;20008;-84
2022/07/15 00:58:16;;;;;;;6.38;4.35;;;10.70;99.90;;;;;;6280004;22;20089;-85
2022/07/15 01:00:44;;;;;;;7.70;3.92;;;10.70;99.90;;;;;;6280011;22;20038;-83
2022/07/15 01:03:10;;;;;;;8.27;3.90;;;10.80;99.90;;;;;;6254348;22;20008;-87
2022/07/15 01:05:37;;;;;;;8.68;3.97;;;10.90;99.90;;;;;;6255050;22;20011;-85
2022/07/15 01:08:03;;;;;;;5.88;3.15;;;10.90;99.90;;;;;;6254226;22;20015;-87
2022/07/15 01:10:29;;;;;;;6.82;3.42;;;11.00;99.90;;;;;;6254736;22;20045;-86
2022/07/15 01:12:55;;;;;;;5.65;3.75;;;11.10;99.90;;;;;;6253286;22;20011;-86
2022/07/15 01:15:21;;;;;;;8.70;3.67;;;11.10;99.90;;;;;;6254565;22;20057;-86
2022/07/15 01:28:09;;;;;;;4.30;3.28;;;11.40;99.90;;;;;;6271573;22;20019;-84
2022/07/15 01:30:35;;;;;;;5.82;2.80;;;11.50;99.90;;;;;;6254554;22;20018;-85
2022/07/15 01:33:01;;;;;;;7.68;3.25;;;11.50;99.90;;;;;;6253759;22;20493;-87
2022/07/15 01:35:28;;;;;;;3.85;2.88;;;11.60;99.90;;;;;;6254445;22;20015;-86
2022/07/15 01:37:54;;;;;;;5.68;2.97;;;11.60;99.90;;;;;;6253892;22;20003;-86
2022/07/15 01:40:19;;;;;;;5.03;2.90;;;11.60;99.90;;;;;;6254367;22;20447;-86
2022/07/15 01:42:45;;;;;;;6.07;2.92;;;11.70;99.90;;;;;;6253289;22;20443;-84
2022/07/15 01:45:11;;;;;;;5.75;3.00;;;11.60;99.90;;;;;;6254057;22;20007;-85
2022/07/15 01:47:48;;;;;;;5.03;2.55;;;11.70;99.90;;;;;;6254304;22;20342;-85
2022/07/15 01:50:14;;;;;;;6.82;2.90;;;11.80;99.90;;;;;;6279184;22;20007;-84
2022/07/15 01:52:39;;;;;;;4.80;2.95;;;11.80;99.90;;;;;;6253504;22;20104;-84
2022/07/15 01:55:07;;;;;;;7.05;3.00;;;11.90;99.90;;;;;;6254163;22;20128;-84
2022/07/15 01:57:33;;;;;;;5.38;2.97;;;11.80;99.90;;;;;;6279880;22;20018;-84
2022/07/15 01:59:58;;;;;;;6.95;2.78;;;11.80;99.90;;;;;;6254358;22;20007;-83
2022/07/15 02:02:25;;;;;;;5.60;2.88;;;11.90;99.90;;;;;;6253503;22;20010;-84
2022/07/15 02:04:50;;;;;;;5.57;2.97;;;11.90;99.90;;;;;;6279253;22;20043;-84
2022/07/15 02:07:16;;;;;;;7.80;3.13;;;11.90;99.90;;;;;;6253380;22;20022;-85
2022/07/15 02:09:42;;;;;;;4.22;2.65;;;12.00;99.90;;;;;;6254070;22;20011;-85
2022/07/15 02:12:08;;;;;;;6.00;2.78;;;11.90;99.90;;;;;;6278949;22;20060;-85
2022/07/15 02:14:34;;;;;;;4.53;2.47;;;11.90;99.90;;;;;;6253102;22;20385;-84
2022/07/15 02:17:01;;;;;;;8.40;3.30;;;12.00;99.90;;;;;;6279180;22;20011;-86
2022/07/15 02:19:26;;;;;;;7.55;3.58;;;12.00;99.90;;;;;;6254042;22;20458;-84
2022/07/15 02:21:52;;;;;;;6.47;3.70;;;12.10;99.90;;;;;;6253401;22;20007;-85
2022/07/15 02:24:20;;;;;;;6.93;3.28;;;12.10;99.90;;;;;;6253836;22;20007;-84
2022/07/15 02:26:46;;;;;;;4.90;3.40;;;12.10;99.90;;;;;;6279167;22;20483;-86
2022/07/15 02:29:13;;;;;;;8.93;3.50;;;12.10;99.90;;;;;;6254051;22;20007;-84
2022/07/15 02:31:38;;;;;;;7.75;3.97;;;12.10;99.90;;;;;;6252858;22;20519;-88
2022/07/15 02:34:04;;;;;;;6.22;3.67;;;12.10;99.90;;;;;;6253486;22;20015;-84
2022/07/15 02:36:30;;;;;;;4.95;3.63;;;12.10;99.90;;;;;;6253771;22;20462;-84
2022/07/15 02:38:56;;;;;;;7.55;3.65;;;12.10;99.90;;;;;;6279328;22;20011;-84
2022/07/15 02:41:23;;;;;;;7.50;3.53;;;12.00;99.90;;;;;;6253408;22;20014;-84
2022/07/15 02:43:49;;;;;;;5.47;3.67;;;12.00;99.90;;;;;;6253449;22;20014;-84
2022/07/15 02:46:15;;;;;;;6.18;3.42;;;11.90;99.90;;;;;;6278867;22;20011;-85
2022/07/15 02:48:41;;;;;;;8.75;3.40;;;11.90;99.90;;;;;;6253927;22;20050;-84
2022/07/15 02:51:07;;;;;;;5.03;2.85;;;11.70;99.90;;;;;;6253553;22;20588;-84
2022/07/15 02:53:33;;;;;;;5.53;3.15;;;11.70;99.90;;;;;;6253409;22;20034;-85
2022/07/15 02:55:59;;;;;;;5.88;2.83;;;11.60;99.90;;;;;;6278581;22;20007;-86
2022/07/15 02:58:30;;;;;;;7.05;3.08;;;11.50;99.90;;;;;;6252837;22;20003;-85
2022/07/15 03:00:57;;;;;;;6.75;2.95;;;11.50;99.90;;;;;;6278826;22;20015;-84
2022/07/15 03:03:23;;;;;;;5.97;2.70;;;11.40;99.90;;;;;;6278934;22;20008;-84
2022/07/15 03:05:49;;;;;;;6.47;2.78;;;11.40;99.90;;;;;;6279005;22;20051;-84
2022/07/15 03:08:15;;;;;;;5.32;2.70;;;11.30;99.90;;;;;;6253349;22;20011;-84
2022/07/15 03:10:41;;;;;;;2.97;2.20;;;11.20;99.90;;;;;;6252685;22;20046;-84
2022/07/15 03:13:08;;;;;;;7.15;2.67;;;11.10;99.90;;;;;;6252771;22;20011;-84
2022/07/15 03:15:34;;;;;;;3.55;2.47;;;11.10;99.90;;;;;;6253273;22;20355;-85
2022/07/15 03:17:59;;;;;;;3.42;2.38;;;11.00;99.90;;;;;;6252444;22;20011;-84
2022/07/15 03:20:25;;;;;;;3.88;2.42;;;10.90;99.90;;;;;;6252970;22;20007;-84
2022/07/15 03:22:50;;;;;;;4.07;2.40;;;10.90;99.90;;;;;;6252948;22;20012;-84
2022/07/15 03:25:16;;;;;;;3.75;2.20;;;10.90;99.90;;;;;;6279032;22;20015;-84
2022/07/15 03:27:42;;;;;;;5.78;2.20;;;10.80;99.90;;;;;;6252774;22;20351;-86
2022/07/15 03:30:08;;;;;;;3.63;1.95;;;10.70;99.90;;;;;;6252320;22;20082;-86
2022/07/15 03:32:34;;;;;;;5.85;2.50;;;10.70;99.90;;;;;;6252226;22;20039;-85
2022/07/15 03:34:59;;;;;;;4.57;1.95;;;10.60;99.90;;;;;;6253218;22;20011;-84
2022/07/15 03:37:25;;;;;;;4.65;2.30;;;10.60;99.90;;;;;;6252709;22;20011;-84
2022/07/15 03:39:51;;;;;;;3.40;2.13;;;10.60;99.90;;;;;;6252660;22;20086;-84
2022/07/15 03:42:16;;;;;;;3.45;2.00;;;10.60;99.90;;;;;;6252560;22;20022;-85
2022/07/15 03:44:42;;;;;;;4.65;2.00;;;10.60;99.90;;;;;;6278335;22;20043;-86
2022/07/15 03:47:08;;;;;;;4.60;2.05;;;10.50;99.90;;;;;;6252346;22;20053;-84
2022/07/15 03:49:33;;;;;;;3.28;2.28;;;10.50;99.90;;;;;;6253164;22;20069;-84
2022/07/15 03:51:59;;;;;;;4.30;2.30;;;10.40;99.90;;;;;;6252625;22;20369;-84
2022/07/15 03:54:25;;;;;;;3.90;2.40;;;10.40;99.90;;;;;;6253280;22;20065;-84
2022/07/15 03:56:51;;;;;;;6.10;2.85;;;10.30;99.90;;;;;;6253218;22;20101;-84
2022/07/15 03:59:20;;;;;;;5.85;2.72;;;10.30;99.90;;;;;;6253083;22;20333;-84
2022/07/15 04:01:47;;;;;;;4.88;2.70;;;10.30;99.90;;;;;;6278158;22;20007;-84
2022/07/15 04:04:13;;;;;;;8.05;2.60;;;10.30;99.90;;;;;;6252960;22;20030;-85
2022/07/15 04:06:38;;;;;;;7.07;2.65;;;10.30;99.90;;;;;;6253255;22;20443;-84
2022/07/15 04:09:04;;;;;;;7.53;2.90;;;10.30;99.90;;;;;;6253198;22;20022;-84
2022/07/15 04:11:30;;;;;;;6.20;2.78;;;10.30;99.90;;;;;;6252528;22;20003;-84
2022/07/15 04:13:56;;;;;;;7.28;3.13;;;10.40;99.90;;;;;;6278428;22;20007;-83
2022/07/15 04:16:21;;;;;;;5.18;2.70;;;10.40;99.90;;;;;;6253121;22;20058;-84
2022/07/15 04:18:47;;;;;;;5.05;2.70;;;10.40;99.90;;;;;;6279289;22;20014;-86
2022/07/15 04:21:13;;;;;;;4.05;2.70;;;10.40;99.90;;;;;;6255593;22;20033;-84
2022/07/15 04:23:39;;;;;;;5.45;3.08;;;10.40;99.90;;;;;;6254019;22;20041;-84
2022/07/15 04:26:04;;;;;;;5.10;2.95;;;10.40;99.90;;;;;;6254595;22;20015;-84
2022/07/15 04:28:30;;;;;;;6.43;3.10;;;10.50;99.90;;;;;;6254813;22;20443;-84
2022/07/15 04:30:59;;;;;;;5.53;3.08;;;10.50;99.90;;;;;;6255185;22;20011;-84
2022/07/15 04:33:24;;;;;;;4.88;3.13;;;10.60;99.90;;;;;;6254449;22;20007;-84
2022/07/15 04:35:50;;;;;;;4.05;2.65;;;10.60;99.90;;;;;;6254892;22;20550;-84
2022/07/15 04:38:16;;;;;;;5.22;2.70;;;10.70;99.90;;;;;;6253497;22;20038;-85
2022/07/15 04:40:42;;;;;;;3.78;2.60;;;10.70;99.90;;;;;;6280500;22;20126;-84
2022/07/15 04:43:10;;;;;;;4.55;2.70;;;10.90;99.90;;;;;;6254225;22;20038;-84
2022/07/15 04:45:36;;;;;;;5.10;2.55;;;11.00;99.90;;;;;;6254801;22;20018;-84
2022/07/15 04:48:02;;;;;;;4.70;2.65;;;11.10;99.90;;;;;;6254580;22;20007;-84
2022/07/15 04:50:46;;;;;;;5.10;2.33;;;11.20;99.90;;;;;;6255034;22;20042;-83
2022/07/15 04:53:11;;;;;;;4.80;2.42;;;11.40;99.90;;;;;;6253508;22;20431;-84
2022/07/15 04:55:37;;;;;;;6.72;2.90;;;11.70;99.90;;;;;;6254192;22;20099;-84
2022/07/15 04:58:03;;;;;;;6.20;2.42;;;11.80;99.90;;;;;;6280401;22;20011;-84
2022/07/15 05:00:29;;;;;;;5.90;2.38;;;12.00;99.90;;;;;;6254799;22;20018;-84
2022/07/15 05:02:55;;;;;;;4.55;1.85;;;12.30;99.90;;;;;;6278695;22;20007;-84
2022/07/15 05:05:21;;;;;;;5.60;1.83;;;12.50;99.90;;;;;;6254724;22;20011;-85
2022/07/15 05:07:46;;;;;;;2.72;1.42;;;12.80;99.90;;;;;;6254580;22;20069;-86
2022/07/15 05:10:12;;;;;;;3.00;1.55;;;13.00;99.90;;;;;;6254594;22;20050;-84
2022/07/15 05:12:39;;;;;;;3.42;1.40;;;13.30;99.90;;;;;;6253770;22;20019;-84
2022/07/15 05:15:05;;;;;;;4.57;1.27;;;13.50;99.90;;;;;;6254543;22;20085;-84
2022/07/15 05:17:31;;;;;;;5.88;1.38;;;13.70;99.90;;;;;;6253986;22;20007;-85
2022/07/15 05:19:57;;;;;;;1.40;0.65;;;13.90;99.90;;;;;;6254111;22;20470;-84
2022/07/15 05:22:23;;;;;;;2.40;0.80;;;13.90;99.90;;;;;;6253449;22;20011;-85
2022/07/15 05:24:48;;;;;;;3.22;1.10;;;13.80;99.90;;;;;;6254524;22;20090;-84
2022/07/15 05:27:14;;;;;;;4.57;0.90;;;13.70;99.90;;;;;;6254609;22;20086;-84
2022/07/15 05:29:40;;;;;;;2.65;0.88;;;13.50;99.90;;;;;;6254432;22;20043;-84
2022/07/15 05:32:06;;;;;;;4.10;0.95;;;13.30;99.90;;;;;;6279238;22;20015;-84
2022/07/15 05:34:32;;;;;;;4.15;1.20;;;13.20;99.90;;;;;;6279349;22;20017;-84
2022/07/15 05:36:57;;;;;;;3.58;1.00;;;13.10;99.90;;;;;;6254158;22;20014;-85
2022/07/15 05:39:24;;;;;;;2.45;0.88;;;13.00;99.90;;;;;;6279563;22;20060;-84
2022/07/15 05:41:49;;;;;;;2.65;1.10;;;12.90;99.90;;;;;;6253559;22;20095;-84
2022/07/15 05:44:15;;;;;;;3.00;1.17;;;12.80;99.90;;;;;;6254065;22;20039;-84
2022/07/15 05:46:41;;;;;;;3.28;1.00;;;12.90;99.90;;;;;;6253920;22;20008;-84
2022/07/15 05:49:06;;;;;;;3.42;1.00;;;12.90;99.90;;;;;;6253966;22;20485;-84
2022/07/15 05:51:33;;;;;;;2.63;1.35;;;12.80;99.90;;;;;;6279579;22;20007;-85
2022/07/15 05:53:59;;;;;;;3.35;1.10;;;12.80;99.90;;;;;;6278642;22;20430;-84
2022/07/15 05:56:25;;;;;;;2.25;1.23;;;12.90;99.90;;;;;;6252871;22;20012;-84
2022/07/15 05:58:51;;;;;;;2.55;1.00;;;13.00;99.90;;;;;;6253383;22;20083;-84
2022/07/15 06:01:16;;;;;;;2.50;1.23;;;13.10;99.90;;;;;;6252741;22;20022;-84
2022/07/15 06:03:42;;;;;;;6.43;1.27;;;13.20;99.90;;;;;;6253770;22;20010;-84
2022/07/15 06:06:08;;;;;;;1.50;0.82;;;13.30;99.90;;;;;;6254457;22;20007;-84
2022/07/15 06:08:35;;;;;;;2.85;0.73;;;13.40;99.90;;;;;;6279148;22;20787;-84
2022/07/15 06:11:00;;;;;;;3.38;0.80;;;13.50;99.90;;;;;;6279237;22;20011;-85
2022/07/15 06:13:26;;;;;;;2.92;0.98;;;13.50;99.90;;;;;;6253899;22;20470;-86
2022/07/15 06:15:52;;;;;;;2.63;0.82;;;13.50;99.90;;;;;;6254366;22;20015;-86
2022/07/15 06:18:18;;;;;;;3.20;0.60;;;13.60;99.90;;;;;;6253481;22;20041;-86
2022/07/15 06:20:43;;;;;;;2.72;0.50;;;13.70;99.90;;;;;;6252141;22;20011;-86
2022/07/15 06:23:09;;;;;;;0.45;0.45;;;13.80;99.90;;;;;;6253653;22;20335;-86
2022/07/15 06:25:35;;;;;;;2.78;0.60;;;13.80;99.90;;;;;;6253906;22;20047;-86
2022/07/15 06:28:01;;;;;;;2.17;0.50;;;13.80;99.90;;;;;;6279463;22;20015;-87
2022/07/15 06:30:27;;;;;;;0.93;0.40;;;13.90;99.90;;;;;;6252334;22;20061;-86
2022/07/15 06:32:52;;;;;;;5.10;2.70;;;14.00;99.90;;;;;;6253246;22;20077;-86
2022/07/15 06:35:18;;;;;;;6.05;2.75;;;14.00;99.90;;;;;;6278460;22;20011;-87
2022/07/15 06:37:44;;;;;;;5.88;3.25;;;14.10;99.90;;;;;;6253451;22;20018;-87
2022/07/15 06:40:09;;;;;;;4.38;2.10;;;14.10;99.90;;;;;;6279454;22;20447;-86
2022/07/15 06:42:37;;;;;;;2.25;1.05;;;14.10;99.90;;;;;;6253057;22;20007;-86
2022/07/15 06:45:03;;;;;;;0.98;0.50;;;14.30;99.90;;;;;;6253573;22;20477;-87
2022/07/15 06:47:29;;;;;;;0.90;0.60;;;14.20;99.90;;;;;;6253699;22;20015;-87
2022/07/15 06:49:54;;;;;;;1.73;0.40;;;14.30;99.90;;;;;;6253187;22;20015;-87
2022/07/15 06:52:20;;;;;;;0.85;0.45;;;14.30;99.90;;;;;;6253603;22;20007;-87
2022/07/15 06:54:45;;;;;;;1.73;0.43;;;14.30;99.90;;;;;;6253681;22;20455;-86
2022/07/15 06:57:12;;;;;;;1.58;0.60;;;14.40;99.90;;;;;;6253773;22;20087;-87
2022/07/15 06:59:38;;;;;;;0.70;0.40;;;14.50;99.90;;;;;;6251981;22;20097;-87
2022/07/15 07:02:04;;;;;;;1.08;0.40;;;14.60;99.90;;;;;;6278967;22;20034;-86
2022/07/15 07:04:29;;;;;;;0.68;0.30;;;14.70;99.90;;;;;;6253147;22;20018;-87
2022/07/15 07:06:55;;;;;;;0.73;0.30;;;14.70;99.90;;;;;;6252786;22;20015;-85
2022/07/15 07:09:21;;;;;;;2.15;0.40;;;14.80;99.90;;;;;;6252666;22;20011;-87
2022/07/15 07:11:46;;;;;;;0.32;0.20;;;14.90;99.90;;;;;;6253242;22;20037;-86
2022/07/15 07:14:12;;;;;;;1.65;0.35;;;15.00;99.90;;;;;;6253087;22;20057;-86
2022/07/15 07:16:38;;;;;;;4.10;0.40;;;15.10;99.90;;;;;;6277670;22;20053;-86
2022/07/15 07:19:03;;;;;;;1.15;0.30;;;15.10;99.90;;;;;;6253056;22;20306;-86
2022/07/15 07:21:29;;;;;;;2.55;0.40;;;15.20;99.90;;;;;;6252457;22;20026;-86
2022/07/15 07:23:54;;;;;;;0.75;0.50;;;15.30;99.90;;;;;;6278138;22;20007;-86
2022/07/15 07:26:20;;;;;;;1.23;0.47;;;15.40;99.90;;;;;;6251676;22;20061;-89
2022/07/15 09:36:10;;;;;;;0.32;0.20;;;25.20;71.40;;;;;;6248533;22;20023;-88
2022/07/15 09:38:57;;;;;;;1.50;0.20;;;25.50;69.10;;;;;;6249474;22;20011;-88
2022/07/15 09:41:43;;;;;;;0.40;0.22;;;26.00;67.70;;;;;;6215623;23;20067;-88
2022/07/15 09:44:14;;;;;;;0.20;0.10;;;26.60;64.20;;;;;;6193381;23;20008;-90
2022/07/15 11:48:23;;;;;;;1.90;0.30;;;24.60;63.50;;;;;;6222964;22;20023;-83
2022/07/15 11:50:54;;;;;;;1.30;0.30;;;24.20;64.30;;;;;;6222994;22;20475;-84
2022/07/15 11:53:20;;;;;;;1.15;0.40;;;23.80;64.60;;;;;;6222285;22;20090;-84
2022/07/15 11:55:56;;;;;;;2.28;0.30;;;23.60;65.30;;;;;;6247976;22;20042;-86
2022/07/15 11:58:43;;;;;;;1.83;0.30;;;23.80;66.90;;;;;;6219663;22;20042;-84
2022/07/15 12:01:15;;;;;;;1.75;0.28;;;24.40;65.70;;;;;;6191890;23;20016;-84
2022/07/15 12:25:05;;;;;;;2.13;0.40;;;24.80;64.40;;;;;;6214740;22;20061;-85
2022/07/15 12:27:37;;;;;;;1.95;0.40;;;24.70;65.80;;;;;;6253116;22;20098;-85
2022/07/15 12:30:05;;;;;;;0.50;0.20;;;24.60;65.50;;;;;;6252935;22;20330;-85
2022/07/15 12:32:31;;;;;;;0.95;0.20;;;24.50;65.70;;;;;;6252545;22;20351;-85
2022/07/15 12:34:58;;;;;;;1.15;0.20;;;24.70;66.10;;;;;;6252708;22;20005;-84
2022/07/15 12:37:27;;;;;;;3.70;0.40;;;24.70;66.20;;;;;;6274930;22;20015;-84
2022/07/15 16:38:20;;;;;;;1.17;0.70;;;22.00;73.90;;;;;;6247351;22;20094;-81
2022/07/15 16:40:46;;;;;;;3.90;0.70;;;22.00;74.00;;;;;;6253387;22;20011;-82
2022/07/15 16:43:12;;;;;;;2.25;0.80;;;21.90;74.60;;;;;;6252704;22;20011;-83
2022/07/15 16:45:38;;;;;;;2.40;1.08;;;21.80;75.10;;;;;;6252301;22;20077;-81
2022/07/15 16:48:04;;;;;;;1.45;1.00;;;21.80;75.40;;;;;;6252647;22;20011;-80
2022/07/15 16:50:30;;;;;;;0.98;0.88;;;21.70;75.80;;;;;;6280978;22;20033;-81
2022/07/15 17:17:02;;;;;;;2.17;1.05;;;20.90;77.40;;;;;;6252320;22;20098;-87
2022/07/15 17:19:28;;;;;;;3.25;1.27;;;20.90;77.40;;;;;;6252112;22;20148;-87
2022/07/15 17:21:54;;;;;;;1.15;0.88;;;20.90;77.90;;;;;;6250716;22;20367;-87
2022/07/15 17:24:21;;;;;;;1.30;0.80;;;20.90;78.00;;;;;;6252636;22;20014;-86
2022/07/15 17:26:48;;;;;;;2.00;0.80;;;20.90;78.10;;;;;;6253315;22;20102;-84
2022/07/15 17:29:13;;;;;;;1.17;0.88;;;20.90;77.50;;;;;;6253614;22;20042;-86
2022/07/15 17:31:39;;;;;;;2.17;1.10;;;20.80;77.40;;;;;;6252905;22;20502;-84
2022/07/15 17:34:05;;;;;;;2.33;0.80;;;20.80;77.70;;;;;;6252478;22;20018;-84
2022/07/15 17:36:32;;;;;;;2.00;0.88;;;20.80;77.70;;;;;;6251807;22;20011;-84
2022/07/15 17:38:58;;;;;;;1.90;0.80;;;20.80;77.90;;;;;;6253371;22;20004;-84
2022/07/15 17:41:23;;;;;;;1.67;0.88;;;20.90;78.40;;;;;;6252390;22;20142;-84
2022/07/15 17:43:49;;;;;;;2.88;1.10;;;20.80;78.40;;;;;;6252055;22;20007;-83
2022/07/15 17:46:16;;;;;;;2.33;0.80;;;20.80;78.40;;;;;;6277789;22;20007;-84
2022/07/15 17:48:42;;;;;;;2.00;0.80;;;20.70;78.30;;;;;;6252050;22;20012;-83
2022/07/15 17:51:08;;;;;;;1.15;0.90;;;20.70;77.70;;;;;;6252937;22;20088;-84
2022/07/15 17:53:34;;;;;;;1.92;0.90;;;20.60;78.30;;;;;;6252803;22;20011;-84
2022/07/15 17:55:59;;;;;;;2.58;0.88;;;20.60;78.10;;;;;;6252228;22;20018;-84
2022/07/15 17:58:25;;;;;;;1.50;0.90;;;20.40;78.30;;;;;;6253218;22;20347;-84
2022/07/15 18:00:52;;;;;;;2.15;0.88;;;20.40;78.60;;;;;;6277559;22;20011;-84
2022/07/15 18:03:19;;;;;;;1.33;0.80;;;20.30;78.40;;;;;;6252393;22;20007;-85
2022/07/15 18:05:46;;;;;;;1.55;0.80;;;20.30;79.00;;;;;;6252611;22;20011;-84
2022/07/15 18:08:15;;;;;;;2.05;0.80;;;20.20;79.20;;;;;;6253038;22;20007;-84
2022/07/15 18:10:41;;;;;;;1.40;0.70;;;20.20;79.80;;;;;;6277732;22;20041;-84
2022/07/15 18:13:08;;;;;;;2.95;0.80;;;20.20;80.10;;;;;;6277009;22;20370;-85
2022/07/15 18:15:34;;;;;;;1.52;0.82;;;20.10;80.20;;;;;;6278331;22;20008;-85
2022/07/15 18:18:03;;;;;;;1.60;0.60;;;20.00;79.70;;;;;;6252822;22;20061;-84
2022/07/15 18:20:28;;;;;;;2.25;0.85;;;19.90;79.30;;;;;;6252393;22;20015;-83
2022/07/15 18:22:54;;;;;;;2.03;0.90;;;19.80;79.40;;;;;;6277858;22;20003;-83
2022/07/15 18:25:20;;;;;;;1.45;0.75;;;19.70;79.10;;;;;;6252354;22;20384;-84
2022/07/15 18:27:46;;;;;;;2.42;1.10;;;19.60;79.60;;;;;;6252718;22;20344;-85
2022/07/15 18:30:14;;;;;;;1.25;0.90;;;19.60;80.50;;;;;;6278267;22;20278;-83
2022/07/15 18:32:40;;;;;;;2.33;1.08;;;19.50;80.70;;;;;;6252629;22;20308;-83
2022/07/15 18:35:08;;;;;;;2.90;1.10;;;19.40;81.20;;;;;;6251211;22;20038;-84
2022/07/15 18:37:36;;;;;;;2.20;1.30;;;19.40;82.40;;;;;;6276601;22;20007;-83
2022/07/15 18:40:09;;;;;;;4.30;1.98;;;19.40;83.00;;;;;;6277708;22;20439;-84
2022/07/15 18:42:35;;;;;;;3.08;1.10;;;19.30;82.90;;;;;;6252354;22;20463;-83
2022/07/15 18:45:01;;;;;;;1.73;1.00;;;19.30;83.10;;;;;;6250992;22;20011;-85
2022/07/15 18:47:27;;;;;;;2.75;0.85;;;19.20;83.50;;;;;;6251405;22;20012;-85
2022/07/15 18:49:52;;;;;;;2.20;0.95;;;19.20;83.30;;;;;;6251817;22;20058;-86
2022/07/15 18:52:18;;;;;;;1.65;0.90;;;19.10;83.70;;;;;;6277867;22;20324;-85
2022/07/15 18:54:43;;;;;;;2.20;1.00;;;19.00;83.70;;;;;;6251237;22;20506;-83
2022/07/15 18:57:09;;;;;;;2.80;1.10;;;19.00;84.70;;;;;;6276875;22;20082;-84
2022/07/15 18:59:36;;;;;;;2.83;1.05;;;19.00;84.30;;;;;;6251628;22;20044;-85
2022/07/15 19:02:02;;;;;;;2.95;0.90;;;18.90;84.60;;;;;;6251459;22;20011;-85
2022/07/15 19:04:27;;;;;;;1.48;0.85;;;18.90;84.70;;;;;;6252095;22;20105;-85
2022/07/15 19:06:53;;;;;;;2.20;1.10;;;18.80;85.10;;;;;;6251877;22;20047;-85
2022/07/15 19:09:19;;;;;;;3.03;1.08;;;18.70;85.70;;;;;;6252577;22;20011;-84
2022/07/15 19:11:44;;;;;;;3.30;1.20;;;18.70;85.90;;;;;;6250919;22;20047;-84
2022/07/15 19:14:10;;;;;;;1.45;0.82;;;18.60;86.00;;;;;;6251666;22;20084;-85
2022/07/15 19:16:35;;;;;;;1.48;0.85;;;18.50;86.60;;;;;;6276503;22;20447;-84
2022/07/15 19:19:01;;;;;;;1.50;0.70;;;18.40;86.90;;;;;;6253000;22;20007;-85
2022/07/15 19:21:30;;;;;;;1.42;0.60;;;18.30;86.20;;;;;;6252181;22;20069;-85
2022/07/15 19:23:56;;;;;;;1.38;0.77;;;18.30;86.20;;;;;;6251741;22;20470;-85
2022/07/15 19:26:21;;;;;;;1.45;0.68;;;18.20;87.30;;;;;;6250719;22;20015;-85
2022/07/15 19:28:47;;;;;;;2.55;0.70;;;18.20;87.90;;;;;;6252646;22;20011;-85
2022/07/15 19:31:13;;;;;;;3.08;0.73;;;18.10;87.60;;;;;;6252250;22;20061;-85
2022/07/15 19:33:39;;;;;;;0.65;0.65;;;18.00;87.90;;;;;;6251610;22;20048;-85
2022/07/15 19:36:05;;;;;;;1.15;0.70;;;17.90;89.80;;;;;;6252025;22;20734;-85
2022/07/15 19:38:31;;;;;;;1.58;0.70;;;17.90;88.80;;;;;;6251185;22;20062;-85
2022/07/15 19:40:57;;;;;;;0.95;0.50;;;17.90;89.90;;;;;;6252481;22;20095;-85
2022/07/15 19:43:23;;;;;;;0.65;0.60;;;17.80;90.00;;;;;;6252221;22;20014;-85
2022/07/15 19:45:49;;;;;;;0.80;0.70;;;17.80;90.10;;;;;;6251027;22;20053;-86
2022/07/15 19:48:14;;;;;;;0.95;0.60;;;17.80;90.70;;;;;;6252062;22;20011;-87
2022/07/15 19:50:45;;;;;;;1.63;0.60;;;17.70;90.90;;;;;;6251849;22;20014;-87
2022/07/15 19:53:12;;;;;;;1.42;0.60;;;17.70;91.20;;;;;;6277594;22;20344;-84
2022/07/15 19:55:39;;;;;;;1.25;0.70;;;17.70;91.80;;;;;;6276714;22;20038;-86
2022/07/15 19:58:05;;;;;;;0.98;0.73;;;17.60;91.60;;;;;;6276986;22;20094;-85
2022/07/15 20:00:32;;;;;;;2.22;0.80;;;17.60;91.60;;;;;;6276532;22;20038;-85
2022/07/15 20:03:01;;;;;;;1.00;0.75;;;17.50;91.50;;;;;;6251240;22;20007;-84
2022/07/15 20:05:28;;;;;;;2.13;0.90;;;17.50;91.60;;;;;;6250555;22;20072;-84
2022/07/15 20:07:55;;;;;;;1.10;0.80;;;17.50;91.80;;;;;;6251613;22;20011;-84
2022/07/15 20:10:25;;;;;;;2.28;0.90;;;17.40;92.00;;;;;;6278005;22;20502;-83
2022/07/15 20:12:52;;;;;;;1.13;1.00;;;17.40;92.50;;;;;;6251710;22;20011;-83
2022/07/15 20:15:19;;;;;;;1.58;1.10;;;17.40;92.20;;;;;;6250442;22;20008;-84
2022/07/15 20:17:46;;;;;;;2.60;1.00;;;17.30;92.70;;;;;;6251337;22;20078;-83
2022/07/15 20:20:24;;;;;;;1.45;0.90;;;17.30;92.90;;;;;;6276519;22;20387;-84
2022/07/15 20:22:50;;;;;;;2.30;1.00;;;17.20;93.00;;;;;;6276209;22;20057;-83
2022/07/15 20:25:19;;;;;;;2.38;1.00;;;17.20;93.70;;;;;;6275323;22;20022;-83
2022/07/15 20:27:45;;;;;;;2.25;1.00;;;17.10;93.80;;;;;;6251068;22;20443;-83
2022/07/15 20:30:13;;;;;;;2.10;0.95;;;17.00;93.70;;;;;;6251442;22;20013;-83
2022/07/15 20:32:49;;;;;;;1.25;0.88;;;17.10;94.00;;;;;;6251925;22;20047;-83
2022/07/15 20:35:15;;;;;;;2.58;1.13;;;16.90;94.30;;;;;;6251938;22;20073;-83
2022/07/15 20:37:41;;;;;;;1.80;1.15;;;16.90;94.30;;;;;;6251131;22;20439;-83
2022/07/15 20:40:07;;;;;;;1.17;0.90;;;16.80;94.80;;;;;;6251148;22;20003;-83
2022/07/15 20:42:36;;;;;;;1.23;1.05;;;16.70;95.10;;;;;;6249580;22;20114;-84
2022/07/15 20:45:04;;;;;;;1.38;0.90;;;16.70;95.30;;;;;;6277240;22;20477;-83
2022/07/15 20:47:31;;;;;;;2.33;1.02;;;16.60;95.50;;;;;;6250421;22;20023;-83
2022/07/15 20:50:00;;;;;;;1.95;0.80;;;16.50;95.90;;;;;;6277155;22;20047;-84
2022/07/15 20:52:26;;;;;;;2.08;1.15;;;16.50;96.60;;;;;;6250282;22;20089;-83
2022/07/15 20:54:52;;;;;;;2.75;0.90;;;16.40;97.30;;;;;;6251396;22;20022;-83
2022/07/15 20:57:18;;;;;;;1.40;1.00;;;16.30;98.30;;;;;;6251474;22;20056;-83
2022/07/15 20:59:43;;;;;;;1.67;1.20;;;16.30;98.80;;;;;;6249939;22;20057;-83
2022/07/15 21:02:11;;;;;;;1.92;1.17;;;16.30;99.50;;;;;;6252441;22;20082;-83
2022/07/15 21:04:37;;;;;;;1.27;1.02;;;16.30;99.90;;;;;;6253345;22;20056;-83
2022/07/15 21:07:02;;;;;;;2.95;1.15;;;16.20;99.90;;;;;;6252412;22;20007;-84
2022/07/15 21:09:28;;;;;;;1.50;1.13;;;16.20;99.90;;;;;;6253851;22;20011;-83
2022/07/15 21:11:53;;;;;;;1.58;1.13;;;16.20;99.90;;;;;;6252692;22;20516;-83
2022/07/15 21:14:19;;;;;;;3.40;1.40;;;16.30;99.90;;;;;;6252288;22;20087;-83
2022/07/15 21:16:45;;;;;;;1.65;1.13;;;16.30;99.90;;;;;;6253268;22;20008;-83
2022/07/15 21:19:10;;;;;;;1.95;1.20;;;16.30;99.90;;;;;;6252800;22;20053;-83
2022/07/15 21:21:36;;;;;;;1.70;1.30;;;16.30;99.90;;;;;;6278079;22;20477;-84
2022/07/15 21:24:01;;;;;;;2.22;1.20;;;16.30;99.90;;;;;;6279944;22;20200;-83
2022/07/15 21:26:45;;;;;;;2.05;1.20;;;16.30;99.90;;;;;;6279538;22;20015;-85
2022/07/15 21:29:11;;;;;;;1.88;1.10;;;16.30;99.90;;;;;;6279186;22;20011;-83
2022/07/15 21:31:36;;;;;;;2.35;1.25;;;16.30;99.90;;;;;;6254336;22;20018;-84
2022/07/15 21:34:02;;;;;;;2.63;1.75;;;16.20;99.90;;;;;;6254468;22;20022;-83
2022/07/15 21:36:28;;;;;;;3.03;1.50;;;16.30;99.90;;;;;;6253687;22;20011;-83
2022/07/15 21:38:53;;;;;;;2.38;1.40;;;16.30;99.90;;;;;;6279346;22;20548;-83
2022/07/15 21:41:19;;;;;;;1.88;1.45;;;16.30;99.90;;;;;;6279805;22;20018;-82
2022/07/15 21:43:44;;;;;;;2.40;1.45;;;16.30;99.90;;;;;;6279181;22;20094;-83
2022/07/15 21:46:10;;;;;;;2.40;1.52;;;16.30;99.90;;;;;;6253958;22;20007;-83
2022/07/15 21:48:36;;;;;;;3.13;1.60;;;16.20;99.90;;;;;;6253924;22;20072;-83